sensor_id;sensor_type;location;lat;lon;timestamp;P1;durP1;ratioP1;P2;durP2;ratioP2
2320;SDS011;15376;48.540;9.268;2023-06-04T00:00:07;9.70;;;8.70;;
2320;SDS011;15376;48.540;9.268;2023-06-04T00:02:33;11.10;;;10.00;;
2320;SDS011;15376;48.540;9.268;2023-06-04T00:04:58;11.20;;;10.20;;
2320;SDS011;15376;48.540;9.268;2023-06-04T00:07:24;11.53;;;10.37;;
2320;SDS011;15376;48.540;9.268;2023-06-04T00:09:49;9.97;;;8.97;;
2320;SDS011;15376;48.540;9.268;2023-06-04T00:12:14;12.23;;;10.10;;
2320;SDS011;15376;48.540;9.268;2023-06-04T00:14:40;11.63;;;10.43;;
2320;SDS011;15376;48.540;9.268;2023-06-04T00:17:06;11.50;;;10.30;;
2320;SDS011;15376;48.540;9.268;2023-06-04T00:19:32;10.50;;;9.50;;
2320;SDS011;15376;48.540;9.268;2023-06-04T00:21:58;12.30;;;11.10;;
2320;SDS011;15376;48.540;9.268;2023-06-04T00:24:24;12.93;;;10.63;;
2320;SDS011;15376;48.540;9.268;2023-06-04T00:26:49;12.07;;;10.77;;
2320;SDS011;15376;48.540;9.268;2023-06-04T00:29:15;11.47;;;10.37;;
2320;SDS011;15376;48.540;9.268;2023-06-04T00:31:40;12.03;;;10.87;;
2320;SDS011;15376;48.540;9.268;2023-06-04T00:34:05;14.30;;;10.80;;
2320;SDS011;15376;48.540;9.268;2023-06-04T00:36:31;12.30;;;11.00;;
2320;SDS011;15376;48.540;9.268;2023-06-04T00:38:56;11.93;;;10.77;;
2320;SDS011;15376;48.540;9.268;2023-06-04T00:41:22;11.00;;;9.90;;
2320;SDS011;15376;48.540;9.268;2023-06-04T00:43:47;11.23;;;9.23;;
2320;SDS011;15376;48.540;9.268;2023-06-04T00:46:20;11.77;;;10.23;;
2320;SDS011;15376;48.540;9.268;2023-06-04T00:48:46;13.17;;;11.40;;
2320;SDS011;15376;48.540;9.268;2023-06-04T00:51:11;10.50;;;9.47;;
2320;SDS011;15376;48.540;9.268;2023-06-04T00:53:37;11.53;;;10.33;;
2320;SDS011;15376;48.540;9.268;2023-06-04T00:56:03;11.33;;;10.20;;
2320;SDS011;15376;48.540;9.268;2023-06-04T00:58:30;11.13;;;10.13;;
2320;SDS011;15376;48.540;9.268;2023-06-04T01:00:56;13.50;;;12.13;;
2320;SDS011;15376;48.540;9.268;2023-06-04T01:03:25;11.67;;;10.60;;
2320;SDS011;15376;48.540;9.268;2023-06-04T01:06:00;12.93;;;11.63;;
2320;SDS011;15376;48.540;9.268;2023-06-04T01:08:35;13.13;;;11.17;;
2320;SDS011;15376;48.540;9.268;2023-06-04T01:11:01;12.97;;;11.67;;
2320;SDS011;15376;48.540;9.268;2023-06-04T01:13:27;14.40;;;11.70;;
2320;SDS011;15376;48.540;9.268;2023-06-04T01:15:52;13.17;;;11.60;;
2320;SDS011;15376;48.540;9.268;2023-06-04T01:18:19;13.90;;;11.47;;
2320;SDS011;15376;48.540;9.268;2023-06-04T01:21:06;12.60;;;11.40;;
2320;SDS011;15376;48.540;9.268;2023-06-04T01:23:37;14.40;;;11.00;;
2320;SDS011;15376;48.540;9.268;2023-06-04T01:26:10;12.00;;;10.90;;
2320;SDS011;15376;48.540;9.268;2023-06-04T01:28:37;11.67;;;10.50;;
2320;SDS011;15376;48.540;9.268;2023-06-04T01:31:03;12.03;;;10.80;;
2320;SDS011;15376;48.540;9.268;2023-06-04T01:33:32;11.23;;;10.00;;
2320;SDS011;15376;48.540;9.268;2023-06-04T01:35:58;12.13;;;10.17;;
2320;SDS011;15376;48.540;9.268;2023-06-04T01:38:23;11.97;;;10.30;;
2320;SDS011;15376;48.540;9.268;2023-06-04T01:40:49;12.67;;;11.43;;
2320;SDS011;15376;48.540;9.268;2023-06-04T01:43:15;12.97;;;11.27;;
2320;SDS011;15376;48.540;9.268;2023-06-04T01:45:41;10.97;;;9.97;;
2320;SDS011;15376;48.540;9.268;2023-06-04T01:48:06;12.00;;;10.90;;
2320;SDS011;15376;48.540;9.268;2023-06-04T01:50:32;11.50;;;10.50;;
2320;SDS011;15376;48.540;9.268;2023-06-04T01:52:58;11.77;;;10.23;;
2320;SDS011;15376;48.540;9.268;2023-06-04T01:55:23;12.33;;;10.97;;
2320;SDS011;15376;48.540;9.268;2023-06-04T01:57:53;11.90;;;9.73;;
2320;SDS011;15376;48.540;9.268;2023-06-04T02:00:18;12.10;;;10.87;;
2320;SDS011;15376;48.540;9.268;2023-06-04T02:02:45;13.93;;;11.30;;
2320;SDS011;15376;48.540;9.268;2023-06-04T02:05:10;12.10;;;10.80;;
2320;SDS011;15376;48.540;9.268;2023-06-04T02:07:37;14.03;;;11.73;;
2320;SDS011;15376;48.540;9.268;2023-06-04T02:10:25;13.83;;;11.93;;
2320;SDS011;15376;48.540;9.268;2023-06-04T02:13:00;12.83;;;11.27;;
2320;SDS011;15376;48.540;9.268;2023-06-04T02:15:30;16.57;;;11.63;;
2320;SDS011;15376;48.540;9.268;2023-06-04T02:17:57;12.13;;;10.83;;
2320;SDS011;15376;48.540;9.268;2023-06-04T02:20:27;12.80;;;11.50;;
2320;SDS011;15376;48.540;9.268;2023-06-04T02:22:53;12.90;;;11.57;;
2320;SDS011;15376;48.540;9.268;2023-06-04T02:25:22;14.03;;;10.50;;
2320;SDS011;15376;48.540;9.268;2023-06-04T02:27:48;10.20;;;9.20;;
2320;SDS011;15376;48.540;9.268;2023-06-04T02:30:14;11.87;;;10.77;;
2320;SDS011;15376;48.540;9.268;2023-06-04T02:32:42;13.17;;;10.37;;
2320;SDS011;15376;48.540;9.268;2023-06-04T02:35:09;14.80;;;10.70;;
2320;SDS011;15376;48.540;9.268;2023-06-04T02:37:35;11.17;;;10.07;;
2320;SDS011;15376;48.540;9.268;2023-06-04T02:40:00;11.13;;;10.07;;
2320;SDS011;15376;48.540;9.268;2023-06-04T02:42:25;12.30;;;11.00;;
2320;SDS011;15376;48.540;9.268;2023-06-04T02:44:50;13.47;;;12.20;;
2320;SDS011;15376;48.540;9.268;2023-06-04T02:47:16;14.43;;;12.33;;
2320;SDS011;15376;48.540;9.268;2023-06-04T02:49:43;16.63;;;11.70;;
2320;SDS011;15376;48.540;9.268;2023-06-04T02:52:10;14.60;;;12.20;;
2320;SDS011;15376;48.540;9.268;2023-06-04T02:54:35;13.00;;;11.30;;
2320;SDS011;15376;48.540;9.268;2023-06-04T02:57:01;11.70;;;10.60;;
2320;SDS011;15376;48.540;9.268;2023-06-04T02:59:26;14.03;;;10.43;;
2320;SDS011;15376;48.540;9.268;2023-06-04T03:01:52;12.70;;;11.40;;
2320;SDS011;15376;48.540;9.268;2023-06-04T03:04:17;12.70;;;11.17;;
2320;SDS011;15376;48.540;9.268;2023-06-04T03:06:42;12.80;;;11.20;;
2320;SDS011;15376;48.540;9.268;2023-06-04T03:09:10;12.80;;;11.60;;
2320;SDS011;15376;48.540;9.268;2023-06-04T03:11:36;14.30;;;11.40;;
2320;SDS011;15376;48.540;9.268;2023-06-04T03:14:01;12.87;;;11.57;;
2320;SDS011;15376;48.540;9.268;2023-06-04T03:16:26;12.30;;;11.00;;
2320;SDS011;15376;48.540;9.268;2023-06-04T03:18:52;13.10;;;11.50;;
2320;SDS011;15376;48.540;9.268;2023-06-04T03:21:17;16.03;;;13.63;;
2320;SDS011;15376;48.540;9.268;2023-06-04T03:23:43;15.07;;;11.73;;
2320;SDS011;15376;48.540;9.268;2023-06-04T03:26:08;13.53;;;10.77;;
2320;SDS011;15376;48.540;9.268;2023-06-04T03:28:33;14.00;;;12.50;;
2320;SDS011;15376;48.540;9.268;2023-06-04T03:30:59;13.77;;;12.37;;
2320;SDS011;15376;48.540;9.268;2023-06-04T03:33:25;17.20;;;14.10;;
2320;SDS011;15376;48.540;9.268;2023-06-04T03:35:50;12.10;;;10.80;;
2320;SDS011;15376;48.540;9.268;2023-06-04T03:38:17;13.33;;;11.10;;
2320;SDS011;15376;48.540;9.268;2023-06-04T03:40:43;14.60;;;10.90;;
2320;SDS011;15376;48.540;9.268;2023-06-04T03:43:09;13.30;;;11.77;;
2320;SDS011;15376;48.540;9.268;2023-06-04T03:45:35;12.37;;;11.07;;
2320;SDS011;15376;48.540;9.268;2023-06-04T03:48:00;12.50;;;10.53;;
2320;SDS011;15376;48.540;9.268;2023-06-04T03:50:26;13.00;;;10.60;;
2320;SDS011;15376;48.540;9.268;2023-06-04T03:52:51;14.00;;;11.10;;
2320;SDS011;15376;48.540;9.268;2023-06-04T03:55:16;11.03;;;9.93;;
2320;SDS011;15376;48.540;9.268;2023-06-04T03:57:42;13.53;;;11.07;;
2320;SDS011;15376;48.540;9.268;2023-06-04T04:00:08;11.67;;;10.53;;
2320;SDS011;15376;48.540;9.268;2023-06-04T04:02:39;11.00;;;9.77;;
2320;SDS011;15376;48.540;9.268;2023-06-04T04:05:05;11.63;;;10.43;;
2320;SDS011;15376;48.540;9.268;2023-06-04T04:07:30;10.77;;;9.77;;
2320;SDS011;15376;48.540;9.268;2023-06-04T04:09:56;13.37;;;10.00;;
2320;SDS011;15376;48.540;9.268;2023-06-04T04:12:21;12.97;;;9.47;;
2320;SDS011;15376;48.540;9.268;2023-06-04T04:14:47;11.00;;;10.00;;
2320;SDS011;15376;48.540;9.268;2023-06-04T04:17:13;14.20;;;10.30;;
2320;SDS011;15376;48.540;9.268;2023-06-04T04:19:39;10.83;;;9.83;;
2320;SDS011;15376;48.540;9.268;2023-06-04T04:22:04;10.33;;;9.37;;
2320;SDS011;15376;48.540;9.268;2023-06-04T04:24:30;10.73;;;9.70;;
2320;SDS011;15376;48.540;9.268;2023-06-04T04:26:56;13.23;;;9.73;;
2320;SDS011;15376;48.540;9.268;2023-06-04T04:29:23;11.77;;;10.17;;
2320;SDS011;15376;48.540;9.268;2023-06-04T04:31:53;9.63;;;8.73;;
2320;SDS011;15376;48.540;9.268;2023-06-04T04:34:22;10.90;;;9.80;;
2320;SDS011;15376;48.540;9.268;2023-06-04T04:36:48;11.33;;;9.53;;
2320;SDS011;15376;48.540;9.268;2023-06-04T04:39:22;12.10;;;9.07;;
2320;SDS011;15376;48.540;9.268;2023-06-04T04:41:49;16.17;;;10.40;;
2320;SDS011;15376;48.540;9.268;2023-06-04T04:44:14;14.50;;;11.37;;
2320;SDS011;15376;48.540;9.268;2023-06-04T04:46:40;10.70;;;9.70;;
2320;SDS011;15376;48.540;9.268;2023-06-04T04:49:05;9.40;;;8.43;;
2320;SDS011;15376;48.540;9.268;2023-06-04T04:51:30;10.27;;;9.27;;
2320;SDS011;15376;48.540;9.268;2023-06-04T04:53:56;11.27;;;10.17;;
2320;SDS011;15376;48.540;9.268;2023-06-04T04:56:23;15.87;;;9.60;;
2320;SDS011;15376;48.540;9.268;2023-06-04T04:58:48;13.57;;;10.63;;
2320;SDS011;15376;48.540;9.268;2023-06-04T05:01:14;10.13;;;8.87;;
2320;SDS011;15376;48.540;9.268;2023-06-04T05:03:39;12.67;;;9.60;;
2320;SDS011;15376;48.540;9.268;2023-06-04T05:06:05;12.53;;;10.33;;
2320;SDS011;15376;48.540;9.268;2023-06-04T05:08:30;11.23;;;9.50;;
2320;SDS011;15376;48.540;9.268;2023-06-04T05:10:56;10.63;;;9.63;;
2320;SDS011;15376;48.540;9.268;2023-06-04T05:13:21;9.67;;;8.77;;
2320;SDS011;15376;48.540;9.268;2023-06-04T05:15:47;11.07;;;9.50;;
2320;SDS011;15376;48.540;9.268;2023-06-04T05:18:13;10.67;;;9.00;;
2320;SDS011;15376;48.540;9.268;2023-06-04T05:20:41;9.40;;;8.50;;
2320;SDS011;15376;48.540;9.268;2023-06-04T05:23:06;10.30;;;9.27;;
2320;SDS011;15376;48.540;9.268;2023-06-04T05:25:32;8.77;;;7.97;;
2320;SDS011;15376;48.540;9.268;2023-06-04T05:27:57;9.07;;;6.97;;
2320;SDS011;15376;48.540;9.268;2023-06-04T05:30:22;10.87;;;6.70;;
2320;SDS011;15376;48.540;9.268;2023-06-04T05:32:49;7.00;;;6.30;;
2320;SDS011;15376;48.540;9.268;2023-06-04T05:35:15;7.17;;;6.57;;
2320;SDS011;15376;48.540;9.268;2023-06-04T05:37:42;6.97;;;6.23;;
2320;SDS011;15376;48.540;9.268;2023-06-04T05:40:08;6.57;;;5.97;;
2320;SDS011;15376;48.540;9.268;2023-06-04T05:42:34;7.43;;;5.33;;
2320;SDS011;15376;48.540;9.268;2023-06-04T05:45:00;6.23;;;5.63;;
2320;SDS011;15376;48.540;9.268;2023-06-04T05:47:26;6.70;;;6.10;;
2320;SDS011;15376;48.540;9.268;2023-06-04T05:49:53;7.67;;;6.67;;
2320;SDS011;15376;48.540;9.268;2023-06-04T05:52:19;8.03;;;7.33;;
2320;SDS011;15376;48.540;9.268;2023-06-04T05:54:44;11.30;;;9.33;;
2320;SDS011;15376;48.540;9.268;2023-06-04T05:57:10;9.70;;;8.70;;
2320;SDS011;15376;48.540;9.268;2023-06-04T05:59:35;10.33;;;9.30;;
2320;SDS011;15376;48.540;9.268;2023-06-04T06:02:01;9.00;;;8.13;;
2320;SDS011;15376;48.540;9.268;2023-06-04T06:04:27;11.57;;;8.03;;
2320;SDS011;15376;48.540;9.268;2023-06-04T06:06:52;7.50;;;6.90;;
2320;SDS011;15376;48.540;9.268;2023-06-04T06:09:19;8.00;;;7.20;;
2320;SDS011;15376;48.540;9.268;2023-06-04T06:11:44;8.13;;;7.33;;
2320;SDS011;15376;48.540;9.268;2023-06-04T06:14:10;7.57;;;6.77;;
2320;SDS011;15376;48.540;9.268;2023-06-04T06:16:35;7.60;;;6.90;;
2320;SDS011;15376;48.540;9.268;2023-06-04T06:19:01;9.33;;;7.60;;
2320;SDS011;15376;48.540;9.268;2023-06-04T06:21:27;9.13;;;7.10;;
2320;SDS011;15376;48.540;9.268;2023-06-04T06:23:53;10.40;;;7.00;;
2320;SDS011;15376;48.540;9.268;2023-06-04T06:26:19;7.17;;;6.57;;
2320;SDS011;15376;48.540;9.268;2023-06-04T06:28:44;6.57;;;6.00;;
2320;SDS011;15376;48.540;9.268;2023-06-04T06:31:10;6.50;;;5.80;;
2320;SDS011;15376;48.540;9.268;2023-06-04T06:33:35;9.10;;;5.40;;
2320;SDS011;15376;48.540;9.268;2023-06-04T06:36:05;5.53;;;5.10;;
2320;SDS011;15376;48.540;9.268;2023-06-04T06:38:31;19.60;;;16.77;;
2320;SDS011;15376;48.540;9.268;2023-06-04T06:40:57;21.37;;;16.23;;
2320;SDS011;15376;48.540;9.268;2023-06-04T06:43:22;7.83;;;7.10;;
2320;SDS011;15376;48.540;9.268;2023-06-04T06:45:47;8.70;;;7.33;;
2320;SDS011;15376;48.540;9.268;2023-06-04T06:48:13;9.20;;;8.30;;
2320;SDS011;15376;48.540;9.268;2023-06-04T06:50:38;5.83;;;5.23;;
2320;SDS011;15376;48.540;9.268;2023-06-04T06:53:03;5.33;;;4.90;;
2320;SDS011;15376;48.540;9.268;2023-06-04T06:55:29;7.60;;;6.80;;
2320;SDS011;15376;48.540;9.268;2023-06-04T06:57:54;8.03;;;7.23;;
2320;SDS011;15376;48.540;9.268;2023-06-04T07:00:20;7.67;;;6.10;;
2320;SDS011;15376;48.540;9.268;2023-06-04T07:02:45;6.40;;;5.20;;
2320;SDS011;15376;48.540;9.268;2023-06-04T07:05:11;5.87;;;5.00;;
2320;SDS011;15376;48.540;9.268;2023-06-04T07:07:38;7.47;;;5.87;;
2320;SDS011;15376;48.540;9.268;2023-06-04T07:10:04;7.83;;;5.17;;
2320;SDS011;15376;48.540;9.268;2023-06-04T07:12:29;6.10;;;4.87;;
2320;SDS011;15376;48.540;9.268;2023-06-04T07:14:55;6.40;;;4.97;;
2320;SDS011;15376;48.540;9.268;2023-06-04T07:17:21;9.23;;;5.50;;
2320;SDS011;15376;48.540;9.268;2023-06-04T07:19:47;4.70;;;4.10;;
2320;SDS011;15376;48.540;9.268;2023-06-04T07:22:12;5.60;;;5.10;;
2320;SDS011;15376;48.540;9.268;2023-06-04T07:24:37;5.07;;;4.23;;
2320;SDS011;15376;48.540;9.268;2023-06-04T07:27:09;7.10;;;5.07;;
2320;SDS011;15376;48.540;9.268;2023-06-04T07:29:36;5.33;;;4.87;;
2320;SDS011;15376;48.540;9.268;2023-06-04T07:32:01;4.70;;;4.30;;
2320;SDS011;15376;48.540;9.268;2023-06-04T07:34:27;6.50;;;4.37;;
2320;SDS011;15376;48.540;9.268;2023-06-04T07:36:52;37.23;;;28.80;;
2320;SDS011;15376;48.540;9.268;2023-06-04T07:39:17;8.33;;;7.03;;
2320;SDS011;15376;48.540;9.268;2023-06-04T07:41:43;5.03;;;4.53;;
2320;SDS011;15376;48.540;9.268;2023-06-04T07:44:08;7.67;;;6.80;;
2320;SDS011;15376;48.540;9.268;2023-06-04T07:46:33;5.50;;;5.00;;
2320;SDS011;15376;48.540;9.268;2023-06-04T07:48:59;7.40;;;4.77;;
2320;SDS011;15376;48.540;9.268;2023-06-04T07:51:24;4.63;;;4.23;;
2320;SDS011;15376;48.540;9.268;2023-06-04T07:53:50;6.97;;;4.37;;
2320;SDS011;15376;48.540;9.268;2023-06-04T07:56:15;4.80;;;3.50;;
2320;SDS011;15376;48.540;9.268;2023-06-04T07:58:41;7.37;;;4.30;;
2320;SDS011;15376;48.540;9.268;2023-06-04T08:01:06;6.93;;;4.43;;
2320;SDS011;15376;48.540;9.268;2023-06-04T08:03:42;5.93;;;4.10;;
2320;SDS011;15376;48.540;9.268;2023-06-04T08:06:07;5.47;;;4.30;;
2320;SDS011;15376;48.540;9.268;2023-06-04T08:08:33;5.70;;;4.30;;
2320;SDS011;15376;48.540;9.268;2023-06-04T08:10:59;5.07;;;4.33;;
2320;SDS011;15376;48.540;9.268;2023-06-04T08:13:24;7.33;;;4.47;;
2320;SDS011;15376;48.540;9.268;2023-06-04T08:15:49;6.30;;;3.57;;
2320;SDS011;15376;48.540;9.268;2023-06-04T08:18:15;7.93;;;4.10;;
2320;SDS011;15376;48.540;9.268;2023-06-04T08:20:40;4.50;;;3.70;;
2320;SDS011;15376;48.540;9.268;2023-06-04T08:23:05;8.00;;;3.97;;
2320;SDS011;15376;48.540;9.268;2023-06-04T08:25:31;3.80;;;3.43;;
2320;SDS011;15376;48.540;9.268;2023-06-04T08:27:56;8.60;;;4.07;;
2320;SDS011;15376;48.540;9.268;2023-06-04T08:30:22;6.43;;;3.80;;
2320;SDS011;15376;48.540;9.268;2023-06-04T08:32:47;3.57;;;3.33;;
2320;SDS011;15376;48.540;9.268;2023-06-04T08:35:13;3.97;;;3.57;;
2320;SDS011;15376;48.540;9.268;2023-06-04T08:37:39;4.50;;;3.57;;
2320;SDS011;15376;48.540;9.268;2023-06-04T08:40:06;5.90;;;5.30;;
2320;SDS011;15376;48.540;9.268;2023-06-04T08:42:37;5.50;;;4.50;;
2320;SDS011;15376;48.540;9.268;2023-06-04T08:45:07;5.37;;;4.87;;
2320;SDS011;15376;48.540;9.268;2023-06-04T08:47:36;4.37;;;3.43;;
2320;SDS011;15376;48.540;9.268;2023-06-04T08:50:02;5.90;;;4.50;;
2320;SDS011;15376;48.540;9.268;2023-06-04T08:52:31;6.13;;;3.93;;
2320;SDS011;15376;48.540;9.268;2023-06-04T08:54:56;4.30;;;3.60;;
2320;SDS011;15376;48.540;9.268;2023-06-04T08:57:24;3.90;;;3.60;;
2320;SDS011;15376;48.540;9.268;2023-06-04T08:59:49;7.83;;;4.10;;
2320;SDS011;15376;48.540;9.268;2023-06-04T09:02:15;4.53;;;4.13;;
2320;SDS011;15376;48.540;9.268;2023-06-04T09:04:42;3.50;;;3.20;;
2320;SDS011;15376;48.540;9.268;2023-06-04T09:07:08;4.10;;;3.70;;
2320;SDS011;15376;48.540;9.268;2023-06-04T09:09:41;5.57;;;3.83;;
2320;SDS011;15376;48.540;9.268;2023-06-04T09:12:11;4.50;;;4.07;;
2320;SDS011;15376;48.540;9.268;2023-06-04T09:14:48;4.80;;;3.60;;
2320;SDS011;15376;48.540;9.268;2023-06-04T09:17:15;4.03;;;3.63;;
2320;SDS011;15376;48.540;9.268;2023-06-04T09:19:45;3.87;;;3.50;;
2320;SDS011;15376;48.540;9.268;2023-06-04T09:22:11;6.23;;;3.63;;
2320;SDS011;15376;48.540;9.268;2023-06-04T09:24:40;3.63;;;3.27;;
2320;SDS011;15376;48.540;9.268;2023-06-04T09:27:11;4.93;;;3.97;;
2320;SDS011;15376;48.540;9.268;2023-06-04T09:29:37;4.23;;;3.83;;
2320;SDS011;15376;48.540;9.268;2023-06-04T09:32:03;4.30;;;3.90;;
2320;SDS011;15376;48.540;9.268;2023-06-04T09:34:29;5.13;;;4.27;;
2320;SDS011;15376;48.540;9.268;2023-06-04T09:36:55;8.03;;;4.23;;
2320;SDS011;15376;48.540;9.268;2023-06-04T09:39:21;4.93;;;4.10;;
2320;SDS011;15376;48.540;9.268;2023-06-04T09:41:57;5.40;;;4.20;;
2320;SDS011;15376;48.540;9.268;2023-06-04T09:44:24;3.80;;;3.33;;
2320;SDS011;15376;48.540;9.268;2023-06-04T09:46:56;6.30;;;3.30;;
2320;SDS011;15376;48.540;9.268;2023-06-04T09:49:22;5.40;;;3.77;;
2320;SDS011;15376;48.540;9.268;2023-06-04T09:51:47;5.90;;;3.93;;
2320;SDS011;15376;48.540;9.268;2023-06-04T09:54:13;5.77;;;3.70;;
2320;SDS011;15376;48.540;9.268;2023-06-04T09:56:39;5.30;;;4.03;;
2320;SDS011;15376;48.540;9.268;2023-06-04T09:59:05;6.63;;;4.10;;
2320;SDS011;15376;48.540;9.268;2023-06-04T10:01:39;4.27;;;3.83;;
2320;SDS011;15376;48.540;9.268;2023-06-04T10:04:07;5.03;;;3.90;;
2320;SDS011;15376;48.540;9.268;2023-06-04T10:06:34;4.73;;;4.33;;
2320;SDS011;15376;48.540;9.268;2023-06-04T10:09:04;5.70;;;4.80;;
2320;SDS011;15376;48.540;9.268;2023-06-04T10:11:33;4.43;;;3.90;;
2320;SDS011;15376;48.540;9.268;2023-06-04T10:16:44;4.70;;;4.30;;
2320;SDS011;15376;48.540;9.268;2023-06-04T10:19:11;6.80;;;4.50;;
2320;SDS011;15376;48.540;9.268;2023-06-04T10:21:37;5.27;;;4.27;;
2320;SDS011;15376;48.540;9.268;2023-06-04T10:24:03;5.27;;;4.00;;
2320;SDS011;15376;48.540;9.268;2023-06-04T10:26:29;4.47;;;4.07;;
2320;SDS011;15376;48.540;9.268;2023-06-04T10:28:56;4.50;;;4.10;;
2320;SDS011;15376;48.540;9.268;2023-06-04T10:31:22;4.13;;;3.83;;
2320;SDS011;15376;48.540;9.268;2023-06-04T10:33:47;7.83;;;4.13;;
2320;SDS011;15376;48.540;9.268;2023-06-04T10:36:20;6.17;;;4.67;;
2320;SDS011;15376;48.540;9.268;2023-06-04T10:38:50;7.83;;;7.03;;
2320;SDS011;15376;48.540;9.268;2023-06-04T10:41:20;6.13;;;5.30;;
2320;SDS011;15376;48.540;9.268;2023-06-04T10:43:49;6.00;;;5.40;;
2320;SDS011;15376;48.540;9.268;2023-06-04T10:46:20;5.80;;;5.30;;
2320;SDS011;15376;48.540;9.268;2023-06-04T10:48:52;5.70;;;5.03;;
2320;SDS011;15376;48.540;9.268;2023-06-04T10:51:31;5.83;;;5.13;;
2320;SDS011;15376;48.540;9.268;2023-06-04T10:53:58;5.90;;;5.30;;
2320;SDS011;15376;48.540;9.268;2023-06-04T10:56:27;5.80;;;5.20;;
2320;SDS011;15376;48.540;9.268;2023-06-04T10:58:54;5.37;;;4.97;;
2320;SDS011;15376;48.540;9.268;2023-06-04T11:01:27;5.53;;;5.03;;
2320;SDS011;15376;48.540;9.268;2023-06-04T11:03:57;5.20;;;4.80;;
2320;SDS011;15376;48.540;9.268;2023-06-04T11:06:23;5.63;;;5.13;;
2320;SDS011;15376;48.540;9.268;2023-06-04T11:09:01;5.97;;;5.20;;
2320;SDS011;15376;48.540;9.268;2023-06-04T11:11:30;5.97;;;5.17;;
2320;SDS011;15376;48.540;9.268;2023-06-04T11:14:06;5.37;;;4.97;;
2320;SDS011;15376;48.540;9.268;2023-06-04T11:16:33;5.10;;;4.70;;
2320;SDS011;15376;48.540;9.268;2023-06-04T11:18:58;5.23;;;4.80;;
2320;SDS011;15376;48.540;9.268;2023-06-04T11:21:24;6.00;;;5.50;;
2320;SDS011;15376;48.540;9.268;2023-06-04T11:23:54;5.27;;;4.77;;
2320;SDS011;15376;48.540;9.268;2023-06-04T11:26:21;6.33;;;5.47;;
2320;SDS011;15376;48.540;9.268;2023-06-04T11:28:49;5.60;;;5.10;;
2320;SDS011;15376;48.540;9.268;2023-06-04T11:31:14;5.47;;;5.07;;
2320;SDS011;15376;48.540;9.268;2023-06-04T11:33:46;6.17;;;5.53;;
2320;SDS011;15376;48.540;9.268;2023-06-04T11:36:25;5.93;;;5.30;;
2320;SDS011;15376;48.540;9.268;2023-06-04T11:41:27;6.53;;;5.90;;
2320;SDS011;15376;48.540;9.268;2023-06-04T11:43:54;6.90;;;6.17;;
2320;SDS011;15376;48.540;9.268;2023-06-04T11:46:20;6.10;;;5.50;;
2320;SDS011;15376;48.540;9.268;2023-06-04T11:48:45;6.23;;;5.73;;
2320;SDS011;15376;48.540;9.268;2023-06-04T11:51:11;6.33;;;5.73;;
2320;SDS011;15376;48.540;9.268;2023-06-04T11:53:37;6.17;;;5.57;;
2320;SDS011;15376;48.540;9.268;2023-06-04T11:56:03;6.90;;;6.20;;
2320;SDS011;15376;48.540;9.268;2023-06-04T11:58:29;6.30;;;5.40;;
2320;SDS011;15376;48.540;9.268;2023-06-04T12:00:55;5.90;;;5.40;;
2320;SDS011;15376;48.540;9.268;2023-06-04T12:03:35;6.30;;;5.70;;
2320;SDS011;15376;48.540;9.268;2023-06-04T12:06:15;6.07;;;5.53;;
2320;SDS011;15376;48.540;9.268;2023-06-04T12:11:32;6.20;;;5.50;;
2320;SDS011;15376;48.540;9.268;2023-06-04T12:13:59;6.70;;;6.10;;
2320;SDS011;15376;48.540;9.268;2023-06-04T12:16:26;5.37;;;4.97;;
2320;SDS011;15376;48.540;9.268;2023-06-04T12:18:52;6.03;;;5.57;;
2320;SDS011;15376;48.540;9.268;2023-06-04T12:21:32;5.23;;;4.73;;
2320;SDS011;15376;48.540;9.268;2023-06-04T12:24:10;5.93;;;5.43;;
2320;SDS011;15376;48.540;9.268;2023-06-04T12:26:38;6.50;;;5.90;;
2320;SDS011;15376;48.540;9.268;2023-06-04T12:31:35;6.07;;;5.60;;
2320;SDS011;15376;48.540;9.268;2023-06-04T12:34:01;6.57;;;6.00;;
2320;SDS011;15376;48.540;9.268;2023-06-04T12:36:26;6.70;;;6.20;;
2320;SDS011;15376;48.540;9.268;2023-06-04T12:38:53;5.97;;;5.47;;
2320;SDS011;15376;48.540;9.268;2023-06-04T12:41:20;6.03;;;5.53;;
2320;SDS011;15376;48.540;9.268;2023-06-04T12:43:46;6.60;;;6.00;;
2320;SDS011;15376;48.540;9.268;2023-06-04T12:46:11;6.40;;;5.90;;
2320;SDS011;15376;48.540;9.268;2023-06-04T12:48:36;6.90;;;6.20;;
2320;SDS011;15376;48.540;9.268;2023-06-04T12:51:02;6.23;;;5.73;;
2320;SDS011;15376;48.540;9.268;2023-06-04T12:53:27;5.90;;;5.40;;
2320;SDS011;15376;48.540;9.268;2023-06-04T12:55:53;6.70;;;6.23;;
2320;SDS011;15376;48.540;9.268;2023-06-04T12:58:18;6.50;;;5.93;;
2320;SDS011;15376;48.540;9.268;2023-06-04T13:00:43;7.10;;;6.50;;
2320;SDS011;15376;48.540;9.268;2023-06-04T13:03:09;7.00;;;6.30;;
2320;SDS011;15376;48.540;9.268;2023-06-04T13:05:36;6.93;;;6.33;;
2320;SDS011;15376;48.540;9.268;2023-06-04T13:08:01;5.93;;;5.53;;
2320;SDS011;15376;48.540;9.268;2023-06-04T13:10:27;6.60;;;5.93;;
2320;SDS011;15376;48.540;9.268;2023-06-04T13:12:52;5.63;;;5.20;;
2320;SDS011;15376;48.540;9.268;2023-06-04T13:15:17;6.47;;;5.97;;
2320;SDS011;15376;48.540;9.268;2023-06-04T13:17:43;6.00;;;5.40;;
2320;SDS011;15376;48.540;9.268;2023-06-04T13:20:08;6.70;;;6.10;;
2320;SDS011;15376;48.540;9.268;2023-06-04T13:22:34;6.00;;;5.40;;
2320;SDS011;15376;48.540;9.268;2023-06-04T13:25:00;5.60;;;5.10;;
2320;SDS011;15376;48.540;9.268;2023-06-04T13:27:26;6.20;;;5.70;;
2320;SDS011;15376;48.540;9.268;2023-06-04T13:29:51;8.63;;;5.70;;
2320;SDS011;15376;48.540;9.268;2023-06-04T13:32:16;6.23;;;5.73;;
2320;SDS011;15376;48.540;9.268;2023-06-04T13:34:42;6.40;;;5.90;;
2320;SDS011;15376;48.540;9.268;2023-06-04T13:37:07;6.60;;;6.00;;
2320;SDS011;15376;48.540;9.268;2023-06-04T13:39:35;6.47;;;5.97;;
2320;SDS011;15376;48.540;9.268;2023-06-04T13:42:01;5.97;;;5.47;;
2320;SDS011;15376;48.540;9.268;2023-06-04T13:44:26;7.10;;;6.50;;
2320;SDS011;15376;48.540;9.268;2023-06-04T13:46:53;6.70;;;6.20;;
2320;SDS011;15376;48.540;9.268;2023-06-04T13:49:19;6.20;;;5.70;;
2320;SDS011;15376;48.540;9.268;2023-06-04T13:51:45;6.90;;;6.20;;
2320;SDS011;15376;48.540;9.268;2023-06-04T13:54:10;6.13;;;5.60;;
2320;SDS011;15376;48.540;9.268;2023-06-04T13:56:36;6.97;;;6.40;;
2320;SDS011;15376;48.540;9.268;2023-06-04T13:59:01;5.70;;;5.30;;
2320;SDS011;15376;48.540;9.268;2023-06-04T14:01:26;6.10;;;5.60;;
2320;SDS011;15376;48.540;9.268;2023-06-04T14:03:52;5.13;;;4.73;;
2320;SDS011;15376;48.540;9.268;2023-06-04T14:06:18;5.57;;;5.17;;
2320;SDS011;15376;48.540;9.268;2023-06-04T14:08:43;6.37;;;5.87;;
2320;SDS011;15376;48.540;9.268;2023-06-04T14:11:08;5.67;;;5.17;;
2320;SDS011;15376;48.540;9.268;2023-06-04T14:13:35;6.90;;;5.80;;
2320;SDS011;15376;48.540;9.268;2023-06-04T14:16:02;6.27;;;5.77;;
2320;SDS011;15376;48.540;9.268;2023-06-04T14:18:29;6.60;;;5.97;;
2320;SDS011;15376;48.540;9.268;2023-06-04T14:20:54;5.73;;;5.33;;
2320;SDS011;15376;48.540;9.268;2023-06-04T14:23:19;5.40;;;5.00;;
2320;SDS011;15376;48.540;9.268;2023-06-04T14:25:45;6.37;;;5.87;;
2320;SDS011;15376;48.540;9.268;2023-06-04T14:28:10;6.13;;;5.67;;
2320;SDS011;15376;48.540;9.268;2023-06-04T14:30:36;5.37;;;4.97;;
2320;SDS011;15376;48.540;9.268;2023-06-04T14:33:01;5.60;;;5.20;;
2320;SDS011;15376;48.540;9.268;2023-06-04T14:35:26;5.80;;;5.40;;
2320;SDS011;15376;48.540;9.268;2023-06-04T14:37:52;6.90;;;6.40;;
2320;SDS011;15376;48.540;9.268;2023-06-04T14:40:17;5.80;;;5.30;;
2320;SDS011;15376;48.540;9.268;2023-06-04T14:42:42;6.17;;;5.57;;
2320;SDS011;15376;48.540;9.268;2023-06-04T14:45:08;5.57;;;5.17;;
2320;SDS011;15376;48.540;9.268;2023-06-04T14:47:34;8.27;;;4.80;;
2320;SDS011;15376;48.540;9.268;2023-06-04T14:49:59;5.20;;;4.80;;
2320;SDS011;15376;48.540;9.268;2023-06-04T14:52:25;5.63;;;4.73;;
2320;SDS011;15376;48.540;9.268;2023-06-04T14:54:50;5.83;;;4.60;;
2320;SDS011;15376;48.540;9.268;2023-06-04T14:57:15;5.27;;;4.77;;
2320;SDS011;15376;48.540;9.268;2023-06-04T14:59:43;5.40;;;4.90;;